sensor_id;sensor_type;location;lat;lon;timestamp;temperature;humidity
935;DHT22;454;53.254;10.400;2022-09-09T04:01:27;13.10;99.90
935;DHT22;454;53.254;10.400;2022-09-09T04:03:54;13.10;99.90
935;DHT22;454;53.254;10.400;2022-09-09T04:06:24;13.10;99.90
935;DHT22;454;53.254;10.400;2022-09-09T04:08:51;13.10;99.90
935;DHT22;454;53.254;10.400;2022-09-09T04:11:18;13.10;99.90
935;DHT22;454;53.254;10.400;2022-09-09T04:13:45;13.10;99.90
935;DHT22;454;53.254;10.400;2022-09-09T04:16:12;13.10;99.90
935;DHT22;454;53.254;10.400;2022-09-09T04:18:41;13.10;99.90
935;DHT22;454;53.254;10.400;2022-09-09T04:21:09;13.10;99.90
935;DHT22;454;53.254;10.400;2022-09-09T04:23:36;13.20;99.90
935;DHT22;454;53.254;10.400;2022-09-09T04:26:03;13.20;99.90
935;DHT22;454;53.254;10.400;2022-09-09T04:28:33;13.20;99.90
935;DHT22;454;53.254;10.400;2022-09-09T04:31:04;13.20;99.90
935;DHT22;454;53.254;10.400;2022-09-09T04:33:31;13.20;99.90
935;DHT22;454;53.254;10.400;2022-09-09T04:35:59;13.30;99.90
935;DHT22;454;53.254;10.400;2022-09-09T04:38:26;13.30;99.90
935;DHT22;454;53.254;10.400;2022-09-09T04:40:53;13.30;99.90
935;DHT22;454;53.254;10.400;2022-09-09T04:43:20;13.40;99.90
935;DHT22;454;53.254;10.400;2022-09-09T04:45:48;13.40;99.90
935;DHT22;454;53.254;10.400;2022-09-09T04:48:15;13.40;99.90
935;DHT22;454;53.254;10.400;2022-09-09T04:50:42;13.40;99.90
935;DHT22;454;53.254;10.400;2022-09-09T04:53:10;13.40;99.90
935;DHT22;454;53.254;10.400;2022-09-09T04:55:37;13.40;99.90
935;DHT22;454;53.254;10.400;2022-09-09T04:58:04;13.50;99.90
935;DHT22;454;53.254;10.400;2022-09-09T05:00:31;13.40;99.90
935;DHT22;454;53.254;10.400;2022-09-09T05:03:02;13.50;99.90
935;DHT22;454;53.254;10.400;2022-09-09T05:05:29;13.50;99.90
935;DHT22;454;53.254;10.400;2022-09-09T05:08:00;13.50;99.90
935;DHT22;454;53.254;10.400;2022-09-09T05:10:29;13.50;99.90
935;DHT22;454;53.254;10.400;2022-09-09T05:12:56;13.60;99.90
935;DHT22;454;53.254;10.400;2022-09-09T05:15:22;13.60;99.90
935;DHT22;454;53.254;10.400;2022-09-09T05:17:49;13.60;99.90
935;DHT22;454;53.254;10.400;2022-09-09T05:20:17;13.60;99.90
935;DHT22;454;53.254;10.400;2022-09-09T05:22:44;13.60;99.90
935;DHT22;454;53.254;10.400;2022-09-09T05:25:11;13.60;99.90
935;DHT22;454;53.254;10.400;2022-09-09T05:27:39;13.60;99.90
935;DHT22;454;53.254;10.400;2022-09-09T05:30:07;13.60;99.90
935;DHT22;454;53.254;10.400;2022-09-09T05:32:34;13.60;99.90
935;DHT22;454;53.254;10.400;2022-09-09T05:35:02;13.60;99.90
935;DHT22;454;53.254;10.400;2022-09-09T05:37:30;13.70;99.90
935;DHT22;454;53.254;10.400;2022-09-09T05:39:57;13.70;99.90
935;DHT22;454;53.254;10.400;2022-09-09T05:42:24;13.70;99.90
935;DHT22;454;53.254;10.400;2022-09-09T05:44:52;13.80;99.90
935;DHT22;454;53.254;10.400;2022-09-09T05:47:19;13.80;99.90
935;DHT22;454;53.254;10.400;2022-09-09T05:49:46;13.90;99.90
935;DHT22;454;53.254;10.400;2022-09-09T05:52:13;14.00;99.90
935;DHT22;454;53.254;10.400;2022-09-09T05:54:40;14.00;99.90
935;DHT22;454;53.254;10.400;2022-09-09T05:57:08;14.10;99.90
935;DHT22;454;53.254;10.400;2022-09-09T05:59:35;14.10;99.90
935;DHT22;454;53.254;10.400;2022-09-09T06:02:03;14.10;99.90
935;DHT22;454;53.254;10.400;2022-09-09T06:04:29;14.10;99.90
935;DHT22;454;53.254;10.400;2022-09-09T06:06:56;14.20;99.90
935;DHT22;454;53.254;10.400;2022-09-09T06:09:23;14.10;99.90
935;DHT22;454;53.254;10.400;2022-09-09T06:11:50;14.20;99.90
935;DHT22;454;53.254;10.400;2022-09-09T06:14:16;14.20;99.90
935;DHT22;454;53.254;10.400;2022-09-09T06:16:44;14.20;99.90
935;DHT22;454;53.254;10.400;2022-09-09T06:19:12;14.20;99.90
935;DHT22;454;53.254;10.400;2022-09-09T06:21:39;14.30;99.90
935;DHT22;454;53.254;10.400;2022-09-09T06:24:07;14.20;99.90
935;DHT22;454;53.254;10.400;2022-09-09T06:26:35;14.30;99.90
935;DHT22;454;53.254;10.400;2022-09-09T06:29:03;14.30;99.90
935;DHT22;454;53.254;10.400;2022-09-09T06:31:32;14.30;99.90
935;DHT22;454;53.254;10.400;2022-09-09T06:34:00;14.40;99.90
935;DHT22;454;53.254;10.400;2022-09-09T06:36:30;14.40;99.90
935;DHT22;454;53.254;10.400;2022-09-09T06:38:57;14.40;99.90
935;DHT22;454;53.254;10.400;2022-09-09T06:41:25;14.40;99.90
935;DHT22;454;53.254;10.400;2022-09-09T06:43:52;14.50;99.90
935;DHT22;454;53.254;10.400;2022-09-09T06:46:22;14.50;99.90
935;DHT22;454;53.254;10.400;2022-09-09T06:48:49;14.60;99.90
935;DHT22;454;53.254;10.400;2022-09-09T06:51:17;14.60;99.90
935;DHT22;454;53.254;10.400;2022-09-09T06:53:49;14.60;99.90
935;DHT22;454;53.254;10.400;2022-09-09T06:56:21;14.60;99.90
935;DHT22;454;53.254;10.400;2022-09-09T06:58:50;14.60;99.90
935;DHT22;454;53.254;10.400;2022-09-09T07:01:18;14.60;99.90
935;DHT22;454;53.254;10.400;2022-09-09T07:03:46;14.70;99.90
935;DHT22;454;53.254;10.400;2022-09-09T07:06:17;14.80;99.90
935;DHT22;454;53.254;10.400;2022-09-09T07:08:50;14.90;99.90
935;DHT22;454;53.254;10.400;2022-09-09T07:11:18;15.00;99.90
935;DHT22;454;53.254;10.400;2022-09-09T07:13:46;15.00;99.90
935;DHT22;454;53.254;10.400;2022-09-09T07:16:15;15.10;99.90
935;DHT22;454;53.254;10.400;2022-09-09T07:18:42;15.20;99.90
935;DHT22;454;53.254;10.400;2022-09-09T07:21:10;15.30;99.90
935;DHT22;454;53.254;10.400;2022-09-09T07:23:38;15.40;99.90
935;DHT22;454;53.254;10.400;2022-09-09T07:26:10;15.50;99.90
935;DHT22;454;53.254;10.400;2022-09-09T07:28:37;15.50;99.90
935;DHT22;454;53.254;10.400;2022-09-09T07:31:05;15.70;99.90
935;DHT22;454;53.254;10.400;2022-09-09T07:33:34;15.70;99.90
935;DHT22;454;53.254;10.400;2022-09-09T07:36:06;15.80;99.90
935;DHT22;454;53.254;10.400;2022-09-09T07:38:38;16.00;99.90
935;DHT22;454;53.254;10.400;2022-09-09T07:41:06;16.00;99.90
935;DHT22;454;53.254;10.400;2022-09-09T07:43:38;16.10;99.90
935;DHT22;454;53.254;10.400;2022-09-09T07:46:06;16.20;99.90
935;DHT22;454;53.254;10.400;2022-09-09T07:48:33;16.30;99.90
935;DHT22;454;53.254;10.400;2022-09-09T07:51:06;16.50;99.90
935;DHT22;454;53.254;10.400;2022-09-09T07:53:33;16.50;99.90
935;DHT22;454;53.254;10.400;2022-09-09T07:56:05;16.50;99.90
935;DHT22;454;53.254;10.400;2022-09-09T07:58:35;16.60;99.90
935;DHT22;454;53.254;10.400;2022-09-09T08:01:08;16.70;99.90
935;DHT22;454;53.254;10.400;2022-09-09T08:03:35;16.70;99.90
935;DHT22;454;53.254;10.400;2022-09-09T08:06:02;16.80;99.90
935;DHT22;454;53.254;10.400;2022-09-09T08:08:29;17.00;99.90
935;DHT22;454;53.254;10.400;2022-09-09T08:11:02;17.10;99.90
935;DHT22;454;53.254;10.400;2022-09-09T08:13:29;17.20;99.90
935;DHT22;454;53.254;10.400;2022-09-09T08:16:04;17.20;99.90
935;DHT22;454;53.254;10.400;2022-09-09T08:18:32;17.30;99.90
935;DHT22;454;53.254;10.400;2022-09-09T08:21:05;17.20;99.90
935;DHT22;454;53.254;10.400;2022-09-09T08:23:33;17.20;99.90
935;DHT22;454;53.254;10.400;2022-09-09T08:26:04;17.30;99.90
935;DHT22;454;53.254;10.400;2022-09-09T08:28:31;17.30;99.90
935;DHT22;454;53.254;10.400;2022-09-09T08:31:08;17.40;99.90
935;DHT22;454;53.254;10.400;2022-09-09T08:33:37;17.40;99.90
935;DHT22;454;53.254;10.400;2022-09-09T08:36:05;17.50;99.90
935;DHT22;454;53.254;10.400;2022-09-09T08:38:32;17.60;99.90
935;DHT22;454;53.254;10.400;2022-09-09T08:43:46;17.70;99.90
935;DHT22;454;53.254;10.400;2022-09-09T08:46:17;17.70;99.90
935;DHT22;454;53.254;10.400;2022-09-09T08:48:53;17.80;99.90
935;DHT22;454;53.254;10.400;2022-09-09T08:51:25;17.90;99.90
935;DHT22;454;53.254;10.400;2022-09-09T08:53:53;18.10;99.90
935;DHT22;454;53.254;10.400;2022-09-09T08:56:22;18.30;99.90
935;DHT22;454;53.254;10.400;2022-09-09T08:58:51;18.40;99.90
935;DHT22;454;53.254;10.400;2022-09-09T09:01:30;18.50;99.90
935;DHT22;454;53.254;10.400;2022-09-09T09:04:07;18.50;99.90
935;DHT22;454;53.254;10.400;2022-09-09T09:06:47;18.40;99.90
935;DHT22;454;53.254;10.400;2022-09-09T09:09:21;18.40;99.90
935;DHT22;454;53.254;10.400;2022-09-09T09:11:51;18.50;99.90
935;DHT22;454;53.254;10.400;2022-09-09T09:14:21;18.60;99.90
935;DHT22;454;53.254;10.400;2022-09-09T09:16:51;18.80;99.90
935;DHT22;454;53.254;10.400;2022-09-09T09:19:20;18.80;99.90
935;DHT22;454;53.254;10.400;2022-09-09T09:21:55;18.70;99.90
935;DHT22;454;53.254;10.400;2022-09-09T09:24:29;18.80;99.90
935;DHT22;454;53.254;10.400;2022-09-09T09:27:09;19.00;99.90
935;DHT22;454;53.254;10.400;2022-09-09T09:29:38;19.00;99.90
935;DHT22;454;53.254;10.400;2022-09-09T09:32:11;19.00;99.90
935;DHT22;454;53.254;10.400;2022-09-09T09:34:42;19.00;99.90
935;DHT22;454;53.254;10.400;2022-09-09T09:37:16;19.10;99.90
935;DHT22;454;53.254;10.400;2022-09-09T09:39:45;19.00;99.90
935;DHT22;454;53.254;10.400;2022-09-09T09:42:14;19.00;99.90
935;DHT22;454;53.254;10.400;2022-09-09T09:44:43;19.10;99.90
935;DHT22;454;53.254;10.400;2022-09-09T09:47:12;19.10;99.90
935;DHT22;454;53.254;10.400;2022-09-09T09:49:39;19.00;99.90
935;DHT22;454;53.254;10.400;2022-09-09T09:52:21;19.10;99.90
935;DHT22;454;53.254;10.400;2022-09-09T09:54:49;19.10;99.90
935;DHT22;454;53.254;10.400;2022-09-09T09:57:16;19.20;99.90
935;DHT22;454;53.254;10.400;2022-09-09T09:59:44;19.30;99.90
935;DHT22;454;53.254;10.400;2022-09-09T10:02:15;19.30;99.90
935;DHT22;454;53.254;10.400;2022-09-09T10:04:42;19.40;99.90
935;DHT22;454;53.254;10.400;2022-09-09T10:07:11;19.30;99.90
935;DHT22;454;53.254;10.400;2022-09-09T10:09:40;19.40;99.90
935;DHT22;454;53.254;10.400;2022-09-09T10:12:15;19.60;99.90
935;DHT22;454;53.254;10.400;2022-09-09T10:14:52;19.70;99.90
935;DHT22;454;53.254;10.400;2022-09-09T10:17:27;19.80;99.90
935;DHT22;454;53.254;10.400;2022-09-09T10:20:10;19.90;99.90
935;DHT22;454;53.254;10.400;2022-09-09T10:22:39;20.00;99.90
935;DHT22;454;53.254;10.400;2022-09-09T10:25:36;20.10;99.90
935;DHT22;454;53.254;10.400;2022-09-09T10:28:35;20.10;99.90
935;DHT22;454;53.254;10.400;2022-09-09T10:31:14;20.30;99.90
935;DHT22;454;53.254;10.400;2022-09-09T10:33:49;20.50;99.90
935;DHT22;454;53.254;10.400;2022-09-09T10:36:19;20.70;99.90
935;DHT22;454;53.254;10.400;2022-09-09T10:38:48;20.70;99.90
935;DHT22;454;53.254;10.400;2022-09-09T10:41:24;20.80;99.90
935;DHT22;454;53.254;10.400;2022-09-09T10:47:19;21.10;99.90
935;DHT22;454;53.254;10.400;2022-09-09T10:50:04;21.20;99.90
935;DHT22;454;53.254;10.400;2022-09-09T10:52:40;21.20;99.90
935;DHT22;454;53.254;10.400;2022-09-09T10:55:11;21.30;99.90
935;DHT22;454;53.254;10.400;2022-09-09T10:57:43;21.30;99.90
935;DHT22;454;53.254;10.400;2022-09-09T11:00:16;21.40;99.90
935;DHT22;454;53.254;10.400;2022-09-09T11:02:46;21.20;99.90
935;DHT22;454;53.254;10.400;2022-09-09T11:05:19;21.10;99.90
935;DHT22;454;53.254;10.400;2022-09-09T11:07:49;21.00;99.90
935;DHT22;454;53.254;10.400;2022-09-09T11:10:22;21.10;99.90
935;DHT22;454;53.254;10.400;2022-09-09T11:12:54;21.00;99.90
935;DHT22;454;53.254;10.400;2022-09-09T11:15:28;20.80;99.90
935;DHT22;454;53.254;10.400;2022-09-09T11:17:59;20.80;99.90
935;DHT22;454;53.254;10.400;2022-09-09T11:20:28;20.80;99.90
935;DHT22;454;53.254;10.400;2022-09-09T11:22:57;20.80;99.90
935;DHT22;454;53.254;10.400;2022-09-09T11:25:29;20.80;99.90
935;DHT22;454;53.254;10.400;2022-09-09T11:28:11;20.70;99.90
935;DHT22;454;53.254;10.400;2022-09-09T11:30:49;20.60;99.90
935;DHT22;454;53.254;10.400;2022-09-09T11:33:42;20.50;99.90
935;DHT22;454;53.254;10.400;2022-09-09T11:42:07;20.40;99.90
935;DHT22;454;53.254;10.400;2022-09-09T11:44:35;20.30;99.90
935;DHT22;454;53.254;10.400;2022-09-09T11:47:02;20.20;99.90
935;DHT22;454;53.254;10.400;2022-09-09T11:50:09;20.00;99.90
935;DHT22;454;53.254;10.400;2022-09-09T11:52:38;19.90;99.90
935;DHT22;454;53.254;10.400;2022-09-09T11:55:20;19.60;99.90
935;DHT22;454;53.254;10.400;2022-09-09T11:57:57;19.40;99.90
935;DHT22;454;53.254;10.400;2022-09-09T12:00:33;19.00;99.90
935;DHT22;454;53.254;10.400;2022-09-09T12:03:00;18.70;99.90
935;DHT22;454;53.254;10.400;2022-09-09T12:05:36;18.50;99.90
935;DHT22;454;53.254;10.400;2022-09-09T12:08:04;18.40;99.90
935;DHT22;454;53.254;10.400;2022-09-09T12:10:33;18.50;99.90
935;DHT22;454;53.254;10.400;2022-09-09T12:13:14;18.50;99.90
935;DHT22;454;53.254;10.400;2022-09-09T12:15:48;18.60;99.90
935;DHT22;454;53.254;10.400;2022-09-09T12:18:22;18.60;99.90
935;DHT22;454;53.254;10.400;2022-09-09T12:20:54;18.60;99.90
935;DHT22;454;53.254;10.400;2022-09-09T12:23:31;18.60;99.90
935;DHT22;454;53.254;10.400;2022-09-09T12:26:16;18.50;99.90
935;DHT22;454;53.254;10.400;2022-09-09T12:29:02;18.60;99.90
935;DHT22;454;53.254;10.400;2022-09-09T12:31:38;18.50;99.90
935;DHT22;454;53.254;10.400;2022-09-09T12:34:11;18.50;99.90
935;DHT22;454;53.254;10.400;2022-09-09T12:36:40;18.70;99.90
935;DHT22;454;53.254;10.400;2022-09-09T12:39:17;18.90;99.90
935;DHT22;454;53.254;10.400;2022-09-09T12:41:51;19.00;99.90
935;DHT22;454;53.254;10.400;2022-09-09T12:44:21;19.20;99.90
935;DHT22;454;53.254;10.400;2022-09-09T12:46:51;19.40;99.90
935;DHT22;454;53.254;10.400;2022-09-09T12:49:28;19.50;99.90
935;DHT22;454;53.254;10.400;2022-09-09T12:51:56;19.60;99.90
935;DHT22;454;53.254;10.400;2022-09-09T12:54:24;19.60;99.90
935;DHT22;454;53.254;10.400;2022-09-09T12:56:50;19.60;99.90
935;DHT22;454;53.254;10.400;2022-09-09T12:59:23;19.70;99.90
935;DHT22;454;53.254;10.400;2022-09-09T13:01:56;19.90;99.90
935;DHT22;454;53.254;10.400;2022-09-09T13:04:23;20.00;99.90
935;DHT22;454;53.254;10.400;2022-09-09T13:06:50;20.10;99.90
935;DHT22;454;53.254;10.400;2022-09-09T13:09:18;20.20;99.90
935;DHT22;454;53.254;10.400;2022-09-09T13:11:48;20.30;99.90
935;DHT22;454;53.254;10.400;2022-09-09T13:14:19;20.40;99.90
935;DHT22;454;53.254;10.400;2022-09-09T13:16:57;20.50;99.90
935;DHT22;454;53.254;10.400;2022-09-09T13:19:24;20.50;99.90
935;DHT22;454;53.254;10.400;2022-09-09T13:21:53;20.60;99.90
935;DHT22;454;53.254;10.400;2022-09-09T13:24:29;20.60;99.90
935;DHT22;454;53.254;10.400;2022-09-09T13:26:57;20.60;99.90
935;DHT22;454;53.254;10.400;2022-09-09T13:29:24;20.50;99.90
935;DHT22;454;53.254;10.400;2022-09-09T13:31:51;20.30;99.90
935;DHT22;454;53.254;10.400;2022-09-09T13:34:28;20.20;99.90
935;DHT22;454;53.254;10.400;2022-09-09T13:36:59;20.10;99.90
935;DHT22;454;53.254;10.400;2022-09-09T13:39:28;20.00;99.90
935;DHT22;454;53.254;10.400;2022-09-09T13:41:55;19.90;99.90
935;DHT22;454;53.254;10.400;2022-09-09T13:44:25;19.90;99.90
935;DHT22;454;53.254;10.400;2022-09-09T13:47:03;19.80;99.90
935;DHT22;454;53.254;10.400;2022-09-09T13:49:32;19.80;99.90
935;DHT22;454;53.254;10.400;2022-09-09T13:52:05;19.70;99.90
935;DHT22;454;53.254;10.400;2022-09-09T13:54:33;19.70;99.90
935;DHT22;454;53.254;10.400;2022-09-09T13:57:00;19.70;99.90
935;DHT22;454;53.254;10.400;2022-09-09T13:59:28;19.60;99.90
935;DHT22;454;53.254;10.400;2022-09-09T14:01:54;19.60;99.90
935;DHT22;454;53.254;10.400;2022-09-09T14:04:22;19.60;99.90
935;DHT22;454;53.254;10.400;2022-09-09T14:06:50;19.50;99.90
935;DHT22;454;53.254;10.400;2022-09-09T14:09:19;19.30;99.90
935;DHT22;454;53.254;10.400;2022-09-09T14:11:45;19.10;99.90
935;DHT22;454;53.254;10.400;2022-09-09T14:14:12;19.00;99.90
935;DHT22;454;53.254;10.400;2022-09-09T14:16:39;18.90;99.90
935;DHT22;454;53.254;10.400;2022-09-09T14:19:07;18.80;99.90
935;DHT22;454;53.254;10.400;2022-09-09T14:21:34;18.70;99.90
935;DHT22;454;53.254;10.400;2022-09-09T14:24:02;18.60;99.90
935;DHT22;454;53.254;10.400;2022-09-09T14:26:29;18.40;99.90
935;DHT22;454;53.254;10.400;2022-09-09T14:28:56;18.30;99.90
935;DHT22;454;53.254;10.400;2022-09-09T14:31:23;18.20;99.90
935;DHT22;454;53.254;10.400;2022-09-09T14:33:50;18.00;99.90
935;DHT22;454;53.254;10.400;2022-09-09T14:36:18;17.90;99.90
935;DHT22;454;53.254;10.400;2022-09-09T14:38:45;17.90;99.90
935;DHT22;454;53.254;10.400;2022-09-09T14:41:14;17.80;99.90
935;DHT22;454;53.254;10.400;2022-09-09T14:43:43;17.80;99.90
935;DHT22;454;53.254;10.400;2022-09-09T14:46:12;17.70;99.90
935;DHT22;454;53.254;10.400;2022-09-09T14:48:38;17.60;99.90
935;DHT22;454;53.254;10.400;2022-09-09T14:51:07;17.50;99.90
935;DHT22;454;53.254;10.400;2022-09-09T14:53:34;17.40;99.90
935;DHT22;454;53.254;10.400;2022-09-09T14:56:05;17.30;99.90
935;DHT22;454;53.254;10.400;2022-09-09T14:58:33;17.20;99.90
935;DHT22;454;53.254;10.400;2022-09-09T15:01:04;17.20;99.90
935;DHT22;454;53.254;10.400;2022-09-09T15:03:31;17.10;99.90
935;DHT22;454;53.254;10.400;2022-09-09T15:05:58;17.00;99.90
935;DHT22;454;53.254;10.400;2022-09-09T15:08:30;17.00;99.90
935;DHT22;454;53.254;10.400;2022-09-09T15:10:59;17.00;99.90
935;DHT22;454;53.254;10.400;2022-09-09T15:13:26;17.00;99.90
935;DHT22;454;53.254;10.400;2022-09-09T15:15:54;16.90;99.90
935;DHT22;454;53.254;10.400;2022-09-09T15:18:23;16.90;99.90
935;DHT22;454;53.254;10.400;2022-09-09T15:20:51;17.00;99.90
935;DHT22;454;53.254;10.400;2022-09-09T15:23:18;17.00;99.90
935;DHT22;454;53.254;10.400;2022-09-09T15:25:51;17.10;99.90
935;DHT22;454;53.254;10.400;2022-09-09T15:28:18;17.10;99.90
935;DHT22;454;53.254;10.400;2022-09-09T15:30:47;17.10;99.90
935;DHT22;454;53.254;10.400;2022-09-09T15:33:15;17.20;99.90
935;DHT22;454;53.254;10.400;2022-09-09T15:35:42;17.20;99.90
935;DHT22;454;53.254;10.400;2022-09-09T15:38:09;17.10;99.90
935;DHT22;454;53.254;10.400;2022-09-09T15:40:38;17.10;99.90
935;DHT22;454;53.254;10.400;2022-09-09T15:43:05;17.20;99.90
935;DHT22;454;53.254;10.400;2022-09-09T15:45:32;17.20;99.90
935;DHT22;454;53.254;10.400;2022-09-09T15:47:59;17.20;99.90
935;DHT22;454;53.254;10.400;2022-09-09T15:50:27;17.20;99.90
935;DHT22;454;53.254;10.400;2022-09-09T15:52:57;17.30;99.90
935;DHT22;454;53.254;10.400;2022-09-09T15:55:23;17.40;99.90
935;DHT22;454;53.254;10.400;2022-09-09T15:57:51;17.50;99.90
935;DHT22;454;53.254;10.400;2022-09-09T16:00:18;17.50;99.90
935;DHT22;454;53.254;10.400;2022-09-09T16:02:46;17.60;99.90
935;DHT22;454;53.254;10.400;2022-09-09T16:05:13;17.60;99.90
935;DHT22;454;53.254;10.400;2022-09-09T16:07:41;17.60;99.90
935;DHT22;454;53.254;10.400;2022-09-09T16:10:09;17.60;99.90
935;DHT22;454;53.254;10.400;2022-09-09T16:12:36;17.70;99.90
935;DHT22;454;53.254;10.400;2022-09-09T16:15:04;17.70;99.90
935;DHT22;454;53.254;10.400;2022-09-09T16:17:32;17.70;99.90
935;DHT22;454;53.254;10.400;2022-09-09T16:20:03;17.80;99.90
935;DHT22;454;53.254;10.400;2022-09-09T16:22:32;17.80;99.90
935;DHT22;454;53.254;10.400;2022-09-09T16:25:00;17.80;99.90
935;DHT22;454;53.254;10.400;2022-09-09T16:27:27;17.90;99.90
935;DHT22;454;53.254;10.400;2022-09-09T16:29:54;17.90;99.90
935;DHT22;454;53.254;10.400;2022-09-09T16:32:20;18.00;99.90
935;DHT22;454;53.254;10.400;2022-09-09T16:34:47;18.00;99.90
935;DHT22;454;53.254;10.400;2022-09-09T16:37:14;18.00;99.90
935;DHT22;454;53.254;10.400;2022-09-09T16:39:41;17.90;99.90
935;DHT22;454;53.254;10.400;2022-09-09T16:42:09;17.90;99.90
935;DHT22;454;53.254;10.400;2022-09-09T16:44:36;17.90;99.90
935;DHT22;454;53.254;10.400;2022-09-09T16:47:03;17.90;99.90
935;DHT22;454;53.254;10.400;2022-09-09T16:49:29;17.90;99.90
935;DHT22;454;53.254;10.400;2022-09-09T16:51:58;17.90;99.90
935;DHT22;454;53.254;10.400;2022-09-09T16:54:25;17.80;99.90
935;DHT22;454;53.254;10.400;2022-09-09T16:56:52;17.80;99.90
935;DHT22;454;53.254;10.400;2022-09-09T16:59:21;17.80;99.90
935;DHT22;454;53.254;10.400;2022-09-09T17:01:50;17.70;99.90
935;DHT22;454;53.254;10.400;2022-09-09T17:04:18;17.70;99.90
935;DHT22;454;53.254;10.400;2022-09-09T17:06:47;17.70;99.90
935;DHT22;454;53.254;10.400;2022-09-09T17:09:16;17.70;99.90
935;DHT22;454;53.254;10.400;2022-09-09T17:11:43;17.60;99.90
935;DHT22;454;53.254;10.400;2022-09-09T17:14:13;17.60;99.90
935;DHT22;454;53.254;10.400;2022-09-09T17:16:42;17.50;99.90
935;DHT22;454;53.254;10.400;2022-09-09T17:19:10;17.50;99.90
935;DHT22;454;53.254;10.400;2022-09-09T17:21:37;17.40;99.90
935;DHT22;454;53.254;10.400;2022-09-09T17:24:04;17.40;99.90
935;DHT22;454;53.254;10.400;2022-09-09T17:26:33;17.40;99.90
935;DHT22;454;53.254;10.400;2022-09-09T17:29:01;17.40;99.90
935;DHT22;454;53.254;10.400;2022-09-09T17:31:29;17.30;99.90
935;DHT22;454;53.254;10.400;2022-09-09T17:33:59;17.30;99.90
935;DHT22;454;53.254;10.400;2022-09-09T17:36:28;17.30;99.90
935;DHT22;454;53.254;10.400;2022-09-09T17:38:56;17.30;99.90
935;DHT22;454;53.254;10.400;2022-09-09T17:41:24;17.20;99.90
935;DHT22;454;53.254;10.400;2022-09-09T17:43:51;17.20;99.90
935;DHT22;454;53.254;10.400;2022-09-09T17:46:20;17.10;99.90
935;DHT22;454;53.254;10.400;2022-09-09T17:48:48;17.10;99.90
935;DHT22;454;53.254;10.400;2022-09-09T17:51:18;17.00;99.90
935;DHT22;454;53.254;10.400;2022-09-09T17:53:47;17.00;99.90
935;DHT22;454;53.254;10.400;2022-09-09T17:56:17;17.00;99.90
935;DHT22;454;53.254;10.400;2022-09-09T17:58:45;16.90;99.90
935;DHT22;454;53.254;10.400;2022-09-09T18:01:14;16.90;99.90
935;DHT22;454;53.254;10.400;2022-09-09T18:03:42;16.90;99.90
935;DHT22;454;53.254;10.400;2022-09-09T18:06:12;16.90;99.90
935;DHT22;454;53.254;10.400;2022-09-09T18:08:42;16.90;99.90
935;DHT22;454;53.254;10.400;2022-09-09T18:11:13;16.80;99.90
935;DHT22;454;53.254;10.400;2022-09-09T18:13:39;16.80;99.90
935;DHT22;454;53.254;10.400;2022-09-09T18:16:07;16.80;99.90
935;DHT22;454;53.254;10.400;2022-09-09T18:18:34;16.70;99.90
935;DHT22;454;53.254;10.400;2022-09-09T18:21:03;16.70;99.90
935;DHT22;454;53.254;10.400;2022-09-09T18:23:31;16.60;99.90
935;DHT22;454;53.254;10.400;2022-09-09T18:26:00;16.60;99.90
935;DHT22;454;53.254;10.400;2022-09-09T18:28:27;16.60;99.90
935;DHT22;454;53.254;10.400;2022-09-09T18:30:54;16.50;99.90
935;DHT22;454;53.254;10.400;2022-09-09T18:33:20;16.50;99.90
935;DHT22;454;53.254;10.400;2022-09-09T18:35:47;16.50;99.90
935;DHT22;454;53.254;10.400;2022-09-09T18:38:14;16.50;99.90
935;DHT22;454;53.254;10.400;2022-09-09T18:40:42;16.40;99.90
935;DHT22;454;53.254;10.400;2022-09-09T18:43:10;16.40;99.90
935;DHT22;454;53.254;10.400;2022-09-09T18:45:37;16.40;99.90
935;DHT22;454;53.254;10.400;2022-09-09T18:48:04;16.40;99.90
935;DHT22;454;53.254;10.400;2022-09-09T18:50:32;16.30;99.90
935;DHT22;454;53.254;10.400;2022-09-09T18:52:58;16.30;99.90
935;DHT22;454;53.254;10.400;2022-09-09T18:55:25;16.30;99.90
935;DHT22;454;53.254;10.400;2022-09-09T18:57:53;16.30;99.90
935;DHT22;454;53.254;10.400;2022-09-09T19:00:21;16.20;99.90
935;DHT22;454;53.254;10.400;2022-09-09T19:02:48;16.20;99.90
935;DHT22;454;53.254;10.400;2022-09-09T19:05:16;16.20;99.90
935;DHT22;454;53.254;10.400;2022-09-09T19:07:43;16.10;99.90
935;DHT22;454;53.254;10.400;2022-09-09T19:10:10;16.10;99.90
935;DHT22;454;53.254;10.400;2022-09-09T19:12:36;16.10;99.90
935;DHT22;454;53.254;10.400;2022-09-09T19:15:04;16.10;99.90
935;DHT22;454;53.254;10.400;2022-09-09T19:17:33;16.00;99.90
935;DHT22;454;53.254;10.400;2022-09-09T19:20:01;16.00;99.90
935;DHT22;454;53.254;10.400;2022-09-09T19:22:28;16.00;99.90
935;DHT22;454;53.254;10.400;2022-09-09T19:24:55;16.00;99.90
935;DHT22;454;53.254;10.400;2022-09-09T19:27:23;15.90;99.90
935;DHT22;454;53.254;10.400;2022-09-09T19:29:50;15.90;99.90
935;DHT22;454;53.254;10.400;2022-09-09T19:32:16;15.90;99.90
935;DHT22;454;53.254;10.400;2022-09-09T19:34:45;15.90;99.90
935;DHT22;454;53.254;10.400;2022-09-09T19:37:11;15.80;99.90
935;DHT22;454;53.254;10.400;2022-09-09T19:39:38;15.80;99.90
935;DHT22;454;53.254;10.400;2022-09-09T19:42:05;15.80;99.90
935;DHT22;454;53.254;10.400;2022-09-09T19:44:31;15.70;99.90
935;DHT22;454;53.254;10.400;2022-09-09T19:46:58;15.70;99.90
935;DHT22;454;53.254;10.400;2022-09-09T19:49:25;15.70;99.90
935;DHT22;454;53.254;10.400;2022-09-09T19:51:53;15.70;99.90
935;DHT22;454;53.254;10.400;2022-09-09T19:54:20;15.70;99.90
935;DHT22;454;53.254;10.400;2022-09-09T19:56:47;15.70;99.90
935;DHT22;454;53.254;10.400;2022-09-09T19:59:14;15.60;99.90
935;DHT22;454;53.254;10.400;2022-09-09T20:01:42;15.60;99.90
935;DHT22;454;53.254;10.400;2022-09-09T20:04:10;15.60;99.90
935;DHT22;454;53.254;10.400;2022-09-09T20:06:39;15.60;99.90
935;DHT22;454;53.254;10.400;2022-09-09T20:09:11;15.70;99.90
935;DHT22;454;53.254;10.400;2022-09-09T20:11:39;15.60;99.90
935;DHT22;454;53.254;10.400;2022-09-09T20:14:06;15.70;99.90
935;DHT22;454;53.254;10.400;2022-09-09T20:16:33;15.70;99.90
935;DHT22;454;53.254;10.400;2022-09-09T20:19:02;15.70;99.90
935;DHT22;454;53.254;10.400;2022-09-09T20:21:31;15.70;99.90
935;DHT22;454;53.254;10.400;2022-09-09T20:23:59;15.70;99.90
935;DHT22;454;53.254;10.400;2022-09-09T20:26:28;15.70;99.90
935;DHT22;454;53.254;10.400;2022-09-09T20:28:57;15.80;99.90
935;DHT22;454;53.254;10.400;2022-09-09T20:31:25;15.80;99.90
935;DHT22;454;53.254;10.400;2022-09-09T20:33:53;15.80;99.90
935;DHT22;454;53.254;10.400;2022-09-09T20:36:22;15.80;99.90
935;DHT22;454;53.254;10.400;2022-09-09T20:38:51;15.80;99.90
935;DHT22;454;53.254;10.400;2022-09-09T20:41:20;15.80;99.90
935;DHT22;454;53.254;10.400;2022-09-09T20:43:49;15.80;99.90